sensor_id;sensor_type;location;lat;lon;timestamp;P1;durP1;ratioP1;P2;durP2;ratioP2
7181;SDS011;3632;42.724;23.298;2024-03-17T00:01:09;28.07;;;22.50;;
7181;SDS011;3632;42.724;23.298;2024-03-17T00:03:35;32.23;;;23.43;;
7181;SDS011;3632;42.724;23.298;2024-03-17T00:06:03;28.43;;;21.10;;
7181;SDS011;3632;42.724;23.298;2024-03-17T00:08:29;27.87;;;21.47;;
7181;SDS011;3632;42.724;23.298;2024-03-17T00:10:56;29.20;;;22.23;;
7181;SDS011;3632;42.724;23.298;2024-03-17T00:13:22;28.50;;;23.17;;
7181;SDS011;3632;42.724;23.298;2024-03-17T00:15:49;30.57;;;21.90;;
7181;SDS011;3632;42.724;23.298;2024-03-17T00:18:15;27.47;;;21.10;;
7181;SDS011;3632;42.724;23.298;2024-03-17T00:20:42;27.00;;;20.30;;
7181;SDS011;3632;42.724;23.298;2024-03-17T00:23:10;26.40;;;20.53;;
7181;SDS011;3632;42.724;23.298;2024-03-17T00:25:37;26.40;;;20.60;;
7181;SDS011;3632;42.724;23.298;2024-03-17T00:28:04;24.87;;;19.37;;
7181;SDS011;3632;42.724;23.298;2024-03-17T00:30:31;25.13;;;19.50;;
7181;SDS011;3632;42.724;23.298;2024-03-17T00:32:57;27.10;;;20.97;;
7181;SDS011;3632;42.724;23.298;2024-03-17T00:35:25;26.63;;;20.53;;
7181;SDS011;3632;42.724;23.298;2024-03-17T00:37:51;28.10;;;20.27;;
7181;SDS011;3632;42.724;23.298;2024-03-17T00:40:20;24.47;;;18.50;;
7181;SDS011;3632;42.724;23.298;2024-03-17T00:42:46;28.87;;;19.57;;
7181;SDS011;3632;42.724;23.298;2024-03-17T00:45:13;24.73;;;19.20;;
7181;SDS011;3632;42.724;23.298;2024-03-17T00:47:39;24.13;;;18.83;;
7181;SDS011;3632;42.724;23.298;2024-03-17T00:50:07;26.20;;;20.17;;
7181;SDS011;3632;42.724;23.298;2024-03-17T00:52:33;27.93;;;21.33;;
7181;SDS011;3632;42.724;23.298;2024-03-17T00:55:00;27.60;;;20.73;;
7181;SDS011;3632;42.724;23.298;2024-03-17T00:57:27;24.50;;;18.40;;
7181;SDS011;3632;42.724;23.298;2024-03-17T00:59:54;25.00;;;18.50;;
7181;SDS011;3632;42.724;23.298;2024-03-17T01:02:20;24.03;;;17.70;;
7181;SDS011;3632;42.724;23.298;2024-03-17T01:04:47;26.10;;;18.93;;
7181;SDS011;3632;42.724;23.298;2024-03-17T01:07:13;26.57;;;18.90;;
7181;SDS011;3632;42.724;23.298;2024-03-17T01:09:39;21.27;;;18.43;;
7181;SDS011;3632;42.724;23.298;2024-03-17T01:12:05;25.77;;;19.80;;
7181;SDS011;3632;42.724;23.298;2024-03-17T01:14:33;25.20;;;20.03;;
7181;SDS011;3632;42.724;23.298;2024-03-17T01:16:59;24.73;;;19.37;;
7181;SDS011;3632;42.724;23.298;2024-03-17T01:19:29;31.77;;;21.80;;
7181;SDS011;3632;42.724;23.298;2024-03-17T01:21:56;28.13;;;22.10;;
7181;SDS011;3632;42.724;23.298;2024-03-17T01:24:22;29.90;;;23.20;;
7181;SDS011;3632;42.724;23.298;2024-03-17T01:26:49;29.70;;;22.03;;
7181;SDS011;3632;42.724;23.298;2024-03-17T01:29:16;27.07;;;21.67;;
7181;SDS011;3632;42.724;23.298;2024-03-17T01:31:43;25.57;;;20.37;;
7181;SDS011;3632;42.724;23.298;2024-03-17T01:34:10;26.03;;;19.43;;
7181;SDS011;3632;42.724;23.298;2024-03-17T01:36:37;26.57;;;20.50;;
7181;SDS011;3632;42.724;23.298;2024-03-17T01:39:03;25.63;;;19.43;;
7181;SDS011;3632;42.724;23.298;2024-03-17T01:41:30;23.67;;;19.23;;
7181;SDS011;3632;42.724;23.298;2024-03-17T01:43:56;27.70;;;19.77;;
7181;SDS011;3632;42.724;23.298;2024-03-17T01:46:24;25.43;;;19.50;;
7181;SDS011;3632;42.724;23.298;2024-03-17T01:48:52;28.50;;;20.97;;
7181;SDS011;3632;42.724;23.298;2024-03-17T01:51:18;28.97;;;21.37;;
7181;SDS011;3632;42.724;23.298;2024-03-17T01:53:45;29.80;;;21.50;;
7181;SDS011;3632;42.724;23.298;2024-03-17T01:56:12;27.60;;;20.67;;
7181;SDS011;3632;42.724;23.298;2024-03-17T01:58:40;30.20;;;21.40;;
7181;SDS011;3632;42.724;23.298;2024-03-17T02:01:09;32.30;;;21.77;;
7181;SDS011;3632;42.724;23.298;2024-03-17T02:03:35;29.37;;;22.10;;
7181;SDS011;3632;42.724;23.298;2024-03-17T02:06:02;28.97;;;23.17;;
7181;SDS011;3632;42.724;23.298;2024-03-17T02:08:31;35.00;;;24.67;;
7181;SDS011;3632;42.724;23.298;2024-03-17T02:11:12;35.27;;;24.63;;
7181;SDS011;3632;42.724;23.298;2024-03-17T02:13:50;32.97;;;23.63;;
7181;SDS011;3632;42.724;23.298;2024-03-17T02:16:17;32.93;;;23.03;;
7181;SDS011;3632;42.724;23.298;2024-03-17T02:18:44;35.23;;;23.80;;
7181;SDS011;3632;42.724;23.298;2024-03-17T02:21:13;32.40;;;22.33;;
7181;SDS011;3632;42.724;23.298;2024-03-17T02:23:42;29.33;;;21.00;;
7181;SDS011;3632;42.724;23.298;2024-03-17T02:26:07;29.97;;;22.50;;
7181;SDS011;3632;42.724;23.298;2024-03-17T02:28:38;29.40;;;20.80;;
7181;SDS011;3632;42.724;23.298;2024-03-17T02:31:04;30.87;;;22.73;;
7181;SDS011;3632;42.724;23.298;2024-03-17T02:33:31;32.47;;;23.57;;
7181;SDS011;3632;42.724;23.298;2024-03-17T02:35:57;30.93;;;21.27;;
7181;SDS011;3632;42.724;23.298;2024-03-17T02:38:24;31.93;;;22.63;;
7181;SDS011;3632;42.724;23.298;2024-03-17T02:41:06;29.63;;;22.50;;
7181;SDS011;3632;42.724;23.298;2024-03-17T02:43:34;28.20;;;21.27;;
7181;SDS011;3632;42.724;23.298;2024-03-17T02:46:00;28.60;;;22.27;;
7181;SDS011;3632;42.724;23.298;2024-03-17T02:48:29;28.27;;;20.03;;
7181;SDS011;3632;42.724;23.298;2024-03-17T02:50:56;31.87;;;22.17;;
7181;SDS011;3632;42.724;23.298;2024-03-17T02:53:23;27.63;;;21.40;;
7181;SDS011;3632;42.724;23.298;2024-03-17T02:55:49;26.17;;;20.37;;
7181;SDS011;3632;42.724;23.298;2024-03-17T02:58:17;26.90;;;20.20;;
7181;SDS011;3632;42.724;23.298;2024-03-17T03:00:44;28.83;;;20.33;;
7181;SDS011;3632;42.724;23.298;2024-03-17T03:03:11;30.30;;;20.97;;
7181;SDS011;3632;42.724;23.298;2024-03-17T03:05:38;25.17;;;19.53;;
7181;SDS011;3632;42.724;23.298;2024-03-17T03:08:05;27.43;;;19.67;;
7181;SDS011;3632;42.724;23.298;2024-03-17T03:10:32;29.73;;;21.97;;
7181;SDS011;3632;42.724;23.298;2024-03-17T03:13:00;24.90;;;18.60;;
7181;SDS011;3632;42.724;23.298;2024-03-17T03:15:29;20.70;;;17.03;;
7181;SDS011;3632;42.724;23.298;2024-03-17T03:17:57;25.73;;;18.87;;
7181;SDS011;3632;42.724;23.298;2024-03-17T03:20:24;22.33;;;18.33;;
7181;SDS011;3632;42.724;23.298;2024-03-17T03:22:53;25.20;;;18.97;;
7181;SDS011;3632;42.724;23.298;2024-03-17T03:25:20;27.20;;;19.87;;
7181;SDS011;3632;42.724;23.298;2024-03-17T03:27:46;26.27;;;19.47;;
7181;SDS011;3632;42.724;23.298;2024-03-17T03:30:13;26.30;;;19.50;;
7181;SDS011;3632;42.724;23.298;2024-03-17T03:32:42;24.27;;;19.23;;
7181;SDS011;3632;42.724;23.298;2024-03-17T03:35:08;23.67;;;18.93;;
7181;SDS011;3632;42.724;23.298;2024-03-17T03:37:36;29.70;;;20.00;;
7181;SDS011;3632;42.724;23.298;2024-03-17T03:40:03;27.43;;;20.20;;
7181;SDS011;3632;42.724;23.298;2024-03-17T03:42:41;25.83;;;19.67;;
7181;SDS011;3632;42.724;23.298;2024-03-17T03:45:08;24.80;;;19.70;;
7181;SDS011;3632;42.724;23.298;2024-03-17T03:47:37;25.57;;;19.80;;
7181;SDS011;3632;42.724;23.298;2024-03-17T03:50:06;25.87;;;19.73;;
7181;SDS011;3632;42.724;23.298;2024-03-17T03:52:34;25.83;;;19.90;;
7181;SDS011;3632;42.724;23.298;2024-03-17T03:55:01;28.80;;;19.63;;
7181;SDS011;3632;42.724;23.298;2024-03-17T03:57:29;26.57;;;20.53;;
7181;SDS011;3632;42.724;23.298;2024-03-17T03:59:57;29.90;;;20.53;;
7181;SDS011;3632;42.724;23.298;2024-03-17T04:02:23;28.90;;;20.87;;
7181;SDS011;3632;42.724;23.298;2024-03-17T04:04:56;28.63;;;20.17;;
7181;SDS011;3632;42.724;23.298;2024-03-17T04:07:24;31.43;;;22.70;;
7181;SDS011;3632;42.724;23.298;2024-03-17T04:09:52;33.13;;;22.97;;
7181;SDS011;3632;42.724;23.298;2024-03-17T04:12:19;38.30;;;24.07;;
7181;SDS011;3632;42.724;23.298;2024-03-17T04:14:45;32.80;;;23.90;;
7181;SDS011;3632;42.724;23.298;2024-03-17T04:17:17;33.33;;;22.17;;
7181;SDS011;3632;42.724;23.298;2024-03-17T04:19:46;30.67;;;22.70;;
7181;SDS011;3632;42.724;23.298;2024-03-17T04:22:13;28.73;;;20.37;;
7181;SDS011;3632;42.724;23.298;2024-03-17T04:24:41;32.80;;;21.53;;
7181;SDS011;3632;42.724;23.298;2024-03-17T04:27:08;28.10;;;20.57;;
7181;SDS011;3632;42.724;23.298;2024-03-17T04:29:35;28.67;;;19.80;;
7181;SDS011;3632;42.724;23.298;2024-03-17T04:32:02;28.07;;;21.20;;
7181;SDS011;3632;42.724;23.298;2024-03-17T04:34:30;28.20;;;20.40;;
7181;SDS011;3632;42.724;23.298;2024-03-17T04:36:57;30.60;;;21.67;;
7181;SDS011;3632;42.724;23.298;2024-03-17T04:39:24;25.97;;;20.27;;
7181;SDS011;3632;42.724;23.298;2024-03-17T04:41:52;29.80;;;21.63;;
7181;SDS011;3632;42.724;23.298;2024-03-17T04:44:19;27.80;;;21.77;;
7181;SDS011;3632;42.724;23.298;2024-03-17T04:46:46;28.67;;;21.97;;
7181;SDS011;3632;42.724;23.298;2024-03-17T04:49:12;34.97;;;22.37;;
7181;SDS011;3632;42.724;23.298;2024-03-17T04:51:39;35.73;;;23.27;;
7181;SDS011;3632;42.724;23.298;2024-03-17T04:54:06;36.27;;;23.47;;
7181;SDS011;3632;42.724;23.298;2024-03-17T04:56:33;48.50;;;27.27;;
7181;SDS011;3632;42.724;23.298;2024-03-17T04:59:01;44.57;;;26.23;;
7181;SDS011;3632;42.724;23.298;2024-03-17T05:01:28;43.53;;;26.17;;
7181;SDS011;3632;42.724;23.298;2024-03-17T05:03:56;36.67;;;24.30;;
7181;SDS011;3632;42.724;23.298;2024-03-17T05:06:23;41.07;;;25.10;;
7181;SDS011;3632;42.724;23.298;2024-03-17T05:08:49;37.50;;;25.07;;
7181;SDS011;3632;42.724;23.298;2024-03-17T05:11:16;44.10;;;26.67;;
7181;SDS011;3632;42.724;23.298;2024-03-17T05:13:44;33.00;;;25.03;;
7181;SDS011;3632;42.724;23.298;2024-03-17T05:16:12;36.13;;;24.37;;
7181;SDS011;3632;42.724;23.298;2024-03-17T05:18:38;30.47;;;23.23;;
7181;SDS011;3632;42.724;23.298;2024-03-17T05:21:06;37.50;;;23.90;;
7181;SDS011;3632;42.724;23.298;2024-03-17T05:23:34;34.30;;;23.93;;
7181;SDS011;3632;42.724;23.298;2024-03-17T05:26:02;30.70;;;23.63;;
7181;SDS011;3632;42.724;23.298;2024-03-17T05:28:30;35.30;;;23.67;;
7181;SDS011;3632;42.724;23.298;2024-03-17T05:30:57;36.03;;;24.30;;
7181;SDS011;3632;42.724;23.298;2024-03-17T05:33:26;34.67;;;24.20;;
7181;SDS011;3632;42.724;23.298;2024-03-17T05:35:53;33.90;;;23.57;;
7181;SDS011;3632;42.724;23.298;2024-03-17T05:38:21;34.97;;;23.73;;
7181;SDS011;3632;42.724;23.298;2024-03-17T05:40:53;29.40;;;22.23;;
7181;SDS011;3632;42.724;23.298;2024-03-17T05:43:20;32.63;;;22.47;;
7181;SDS011;3632;42.724;23.298;2024-03-17T05:45:47;31.77;;;21.90;;
7181;SDS011;3632;42.724;23.298;2024-03-17T05:48:14;28.80;;;21.03;;
7181;SDS011;3632;42.724;23.298;2024-03-17T05:50:42;35.13;;;22.10;;
7181;SDS011;3632;42.724;23.298;2024-03-17T05:53:09;29.40;;;20.87;;
7181;SDS011;3632;42.724;23.298;2024-03-17T05:55:35;30.30;;;21.33;;
7181;SDS011;3632;42.724;23.298;2024-03-17T05:58:02;28.40;;;19.70;;
7181;SDS011;3632;42.724;23.298;2024-03-17T06:00:30;27.13;;;20.60;;
7181;SDS011;3632;42.724;23.298;2024-03-17T06:02:57;29.40;;;21.10;;
7181;SDS011;3632;42.724;23.298;2024-03-17T06:05:25;25.93;;;18.53;;
7181;SDS011;3632;42.724;23.298;2024-03-17T06:07:53;24.67;;;18.43;;
7181;SDS011;3632;42.724;23.298;2024-03-17T06:10:20;25.50;;;18.90;;
7181;SDS011;3632;42.724;23.298;2024-03-17T06:12:49;24.77;;;18.33;;
7181;SDS011;3632;42.724;23.298;2024-03-17T06:15:17;23.93;;;17.07;;
7181;SDS011;3632;42.724;23.298;2024-03-17T06:17:46;26.43;;;18.40;;
7181;SDS011;3632;42.724;23.298;2024-03-17T06:20:12;27.20;;;17.33;;
7181;SDS011;3632;42.724;23.298;2024-03-17T06:22:39;25.50;;;17.10;;
7181;SDS011;3632;42.724;23.298;2024-03-17T06:25:08;21.97;;;16.67;;
7181;SDS011;3632;42.724;23.298;2024-03-17T06:27:35;22.93;;;17.03;;
7181;SDS011;3632;42.724;23.298;2024-03-17T06:30:02;24.80;;;15.67;;
7181;SDS011;3632;42.724;23.298;2024-03-17T06:32:29;20.40;;;15.80;;
7181;SDS011;3632;42.724;23.298;2024-03-17T06:34:56;21.67;;;16.20;;
7181;SDS011;3632;42.724;23.298;2024-03-17T06:37:23;21.07;;;15.70;;
7181;SDS011;3632;42.724;23.298;2024-03-17T06:39:50;20.77;;;15.80;;
7181;SDS011;3632;42.724;23.298;2024-03-17T06:42:20;17.63;;;14.17;;
7181;SDS011;3632;42.724;23.298;2024-03-17T06:44:47;15.77;;;12.57;;
7181;SDS011;3632;42.724;23.298;2024-03-17T06:47:13;18.40;;;12.63;;
7181;SDS011;3632;42.724;23.298;2024-03-17T06:49:40;16.33;;;12.40;;
7181;SDS011;3632;42.724;23.298;2024-03-17T06:52:08;18.67;;;13.03;;
7181;SDS011;3632;42.724;23.298;2024-03-17T06:54:35;16.87;;;12.47;;
7181;SDS011;3632;42.724;23.298;2024-03-17T06:57:02;16.20;;;12.80;;
7181;SDS011;3632;42.724;23.298;2024-03-17T06:59:30;17.90;;;13.10;;
7181;SDS011;3632;42.724;23.298;2024-03-17T07:01:59;16.13;;;12.17;;
7181;SDS011;3632;42.724;23.298;2024-03-17T07:04:26;15.13;;;11.73;;
7181;SDS011;3632;42.724;23.298;2024-03-17T07:06:52;14.67;;;12.17;;
7181;SDS011;3632;42.724;23.298;2024-03-17T07:09:19;13.20;;;11.27;;
7181;SDS011;3632;42.724;23.298;2024-03-17T07:11:46;15.83;;;11.70;;
7181;SDS011;3632;42.724;23.298;2024-03-17T07:14:13;14.63;;;11.33;;
7181;SDS011;3632;42.724;23.298;2024-03-17T07:16:41;14.30;;;10.83;;
7181;SDS011;3632;42.724;23.298;2024-03-17T07:19:08;14.40;;;10.20;;
7181;SDS011;3632;42.724;23.298;2024-03-17T07:21:35;14.10;;;10.57;;
7181;SDS011;3632;42.724;23.298;2024-03-17T07:24:01;12.50;;;10.07;;
7181;SDS011;3632;42.724;23.298;2024-03-17T07:26:29;12.27;;;10.40;;
7181;SDS011;3632;42.724;23.298;2024-03-17T07:28:56;12.07;;;9.97;;
7181;SDS011;3632;42.724;23.298;2024-03-17T07:31:23;12.37;;;10.27;;
7181;SDS011;3632;42.724;23.298;2024-03-17T07:33:51;12.60;;;9.33;;
7181;SDS011;3632;42.724;23.298;2024-03-17T07:36:18;13.23;;;9.03;;
7181;SDS011;3632;42.724;23.298;2024-03-17T07:38:47;11.87;;;9.13;;
7181;SDS011;3632;42.724;23.298;2024-03-17T07:41:14;12.20;;;8.80;;
7181;SDS011;3632;42.724;23.298;2024-03-17T07:43:40;11.03;;;8.57;;
7181;SDS011;3632;42.724;23.298;2024-03-17T07:46:08;10.17;;;8.33;;
7181;SDS011;3632;42.724;23.298;2024-03-17T07:48:37;13.00;;;8.30;;
7181;SDS011;3632;42.724;23.298;2024-03-17T07:51:07;9.87;;;7.93;;
7181;SDS011;3632;42.724;23.298;2024-03-17T07:53:35;8.60;;;7.53;;
7181;SDS011;3632;42.724;23.298;2024-03-17T07:56:04;11.00;;;8.87;;
7181;SDS011;3632;42.724;23.298;2024-03-17T07:58:34;10.63;;;8.30;;
7181;SDS011;3632;42.724;23.298;2024-03-17T08:01:03;11.83;;;8.43;;
7181;SDS011;3632;42.724;23.298;2024-03-17T08:03:32;11.33;;;8.53;;
7181;SDS011;3632;42.724;23.298;2024-03-17T08:05:59;11.87;;;9.37;;
7181;SDS011;3632;42.724;23.298;2024-03-17T08:08:29;12.20;;;8.33;;
7181;SDS011;3632;42.724;23.298;2024-03-17T08:10:56;11.63;;;9.23;;
7181;SDS011;3632;42.724;23.298;2024-03-17T08:13:23;12.23;;;9.37;;
7181;SDS011;3632;42.724;23.298;2024-03-17T08:15:55;14.37;;;9.73;;
7181;SDS011;3632;42.724;23.298;2024-03-17T08:18:22;18.43;;;9.43;;
7181;SDS011;3632;42.724;23.298;2024-03-17T08:20:49;12.40;;;9.53;;
7181;SDS011;3632;42.724;23.298;2024-03-17T08:23:16;14.07;;;11.13;;
7181;SDS011;3632;42.724;23.298;2024-03-17T08:25:49;17.13;;;10.73;;
7181;SDS011;3632;42.724;23.298;2024-03-17T08:28:18;12.93;;;9.77;;
7181;SDS011;3632;42.724;23.298;2024-03-17T08:30:50;12.20;;;9.37;;
7181;SDS011;3632;42.724;23.298;2024-03-17T08:33:17;12.80;;;9.90;;
7181;SDS011;3632;42.724;23.298;2024-03-17T08:35:51;11.00;;;8.90;;
7181;SDS011;3632;42.724;23.298;2024-03-17T08:38:19;12.37;;;9.37;;
7181;SDS011;3632;42.724;23.298;2024-03-17T08:40:47;12.33;;;10.30;;
7181;SDS011;3632;42.724;23.298;2024-03-17T08:43:14;12.17;;;9.40;;
7181;SDS011;3632;42.724;23.298;2024-03-17T08:45:41;12.27;;;10.33;;
7181;SDS011;3632;42.724;23.298;2024-03-17T08:48:08;14.27;;;10.13;;
7181;SDS011;3632;42.724;23.298;2024-03-17T08:50:36;13.13;;;10.53;;
7181;SDS011;3632;42.724;23.298;2024-03-17T08:53:05;11.07;;;9.47;;
7181;SDS011;3632;42.724;23.298;2024-03-17T08:55:32;12.07;;;10.03;;
7181;SDS011;3632;42.724;23.298;2024-03-17T08:58:00;14.00;;;11.97;;
7181;SDS011;3632;42.724;23.298;2024-03-17T09:00:27;16.70;;;12.03;;
7181;SDS011;3632;42.724;23.298;2024-03-17T09:02:55;15.77;;;12.00;;
7181;SDS011;3632;42.724;23.298;2024-03-17T09:05:22;15.03;;;10.93;;
7181;SDS011;3632;42.724;23.298;2024-03-17T09:07:49;12.03;;;10.53;;
7181;SDS011;3632;42.724;23.298;2024-03-17T09:10:16;11.73;;;9.80;;
7181;SDS011;3632;42.724;23.298;2024-03-17T09:12:42;14.37;;;10.00;;
7181;SDS011;3632;42.724;23.298;2024-03-17T09:15:13;11.67;;;9.87;;
7181;SDS011;3632;42.724;23.298;2024-03-17T09:17:40;10.03;;;8.97;;
7181;SDS011;3632;42.724;23.298;2024-03-17T09:20:07;11.57;;;9.50;;
7181;SDS011;3632;42.724;23.298;2024-03-17T09:22:37;11.83;;;10.57;;
7181;SDS011;3632;42.724;23.298;2024-03-17T09:25:05;12.43;;;9.93;;
7181;SDS011;3632;42.724;23.298;2024-03-17T09:27:33;11.97;;;8.80;;
7181;SDS011;3632;42.724;23.298;2024-03-17T09:30:01;11.40;;;9.67;;
7181;SDS011;3632;42.724;23.298;2024-03-17T09:32:32;12.60;;;10.43;;
7181;SDS011;3632;42.724;23.298;2024-03-17T09:34:59;11.83;;;8.90;;
7181;SDS011;3632;42.724;23.298;2024-03-17T09:37:25;10.30;;;8.53;;
7181;SDS011;3632;42.724;23.298;2024-03-17T09:39:52;8.90;;;7.53;;
7181;SDS011;3632;42.724;23.298;2024-03-17T09:42:22;9.87;;;8.00;;
7181;SDS011;3632;42.724;23.298;2024-03-17T09:44:50;8.70;;;7.47;;
7181;SDS011;3632;42.724;23.298;2024-03-17T09:47:19;9.20;;;6.70;;
7181;SDS011;3632;42.724;23.298;2024-03-17T09:49:49;9.17;;;7.27;;
7181;SDS011;3632;42.724;23.298;2024-03-17T09:52:19;9.70;;;7.23;;
7181;SDS011;3632;42.724;23.298;2024-03-17T09:54:49;9.40;;;7.90;;
7181;SDS011;3632;42.724;23.298;2024-03-17T09:57:20;10.73;;;7.70;;
7181;SDS011;3632;42.724;23.298;2024-03-17T09:59:50;11.17;;;7.47;;
7181;SDS011;3632;42.724;23.298;2024-03-17T10:02:18;14.80;;;10.87;;
7181;SDS011;3632;42.724;23.298;2024-03-17T10:04:45;7.57;;;6.40;;
7181;SDS011;3632;42.724;23.298;2024-03-17T10:07:13;8.90;;;7.23;;
7181;SDS011;3632;42.724;23.298;2024-03-17T10:09:41;8.43;;;6.20;;
7181;SDS011;3632;42.724;23.298;2024-03-17T10:12:23;9.33;;;6.90;;
7181;SDS011;3632;42.724;23.298;2024-03-17T10:15:01;6.93;;;6.00;;
7181;SDS011;3632;42.724;23.298;2024-03-17T10:17:30;6.67;;;4.80;;
7181;SDS011;3632;42.724;23.298;2024-03-17T10:20:13;6.67;;;4.63;;
7181;SDS011;3632;42.724;23.298;2024-03-17T10:23:00;5.70;;;4.97;;
7181;SDS011;3632;42.724;23.298;2024-03-17T10:25:29;6.60;;;5.77;;
7181;SDS011;3632;42.724;23.298;2024-03-17T10:27:56;6.10;;;5.50;;
7181;SDS011;3632;42.724;23.298;2024-03-17T10:30:24;9.33;;;6.00;;
7181;SDS011;3632;42.724;23.298;2024-03-17T10:32:53;6.70;;;5.30;;
7181;SDS011;3632;42.724;23.298;2024-03-17T10:35:27;6.33;;;5.30;;
7181;SDS011;3632;42.724;23.298;2024-03-17T10:37:56;6.70;;;5.90;;
7181;SDS011;3632;42.724;23.298;2024-03-17T10:40:26;7.23;;;5.63;;
7181;SDS011;3632;42.724;23.298;2024-03-17T10:42:54;7.33;;;4.80;;
7181;SDS011;3632;42.724;23.298;2024-03-17T10:45:22;10.10;;;6.17;;
7181;SDS011;3632;42.724;23.298;2024-03-17T10:47:50;7.07;;;5.37;;
7181;SDS011;3632;42.724;23.298;2024-03-17T10:50:19;8.90;;;5.83;;
7181;SDS011;3632;42.724;23.298;2024-03-17T10:52:47;6.20;;;5.03;;
7181;SDS011;3632;42.724;23.298;2024-03-17T10:55:21;8.07;;;5.77;;
7181;SDS011;3632;42.724;23.298;2024-03-17T10:57:51;10.13;;;6.30;;
7181;SDS011;3632;42.724;23.298;2024-03-17T11:00:19;8.07;;;6.27;;
7181;SDS011;3632;42.724;23.298;2024-03-17T11:02:48;8.07;;;6.20;;
7181;SDS011;3632;42.724;23.298;2024-03-17T11:05:18;6.67;;;5.67;;
7181;SDS011;3632;42.724;23.298;2024-03-17T11:07:47;9.13;;;7.30;;
7181;SDS011;3632;42.724;23.298;2024-03-17T11:10:18;6.43;;;4.97;;
7181;SDS011;3632;42.724;23.298;2024-03-17T11:12:46;5.33;;;4.50;;
7181;SDS011;3632;42.724;23.298;2024-03-17T11:15:39;4.73;;;4.27;;
7181;SDS011;3632;42.724;23.298;2024-03-17T11:18:28;5.00;;;3.87;;
7181;SDS011;3632;42.724;23.298;2024-03-17T11:21:02;5.47;;;3.90;;
7181;SDS011;3632;42.724;23.298;2024-03-17T11:23:35;4.80;;;4.17;;
7181;SDS011;3632;42.724;23.298;2024-03-17T11:26:03;4.87;;;3.70;;
7181;SDS011;3632;42.724;23.298;2024-03-17T11:31:37;5.07;;;3.67;;
7181;SDS011;3632;42.724;23.298;2024-03-17T11:36:53;4.17;;;3.87;;
7181;SDS011;3632;42.724;23.298;2024-03-17T11:39:20;6.43;;;4.13;;
7181;SDS011;3632;42.724;23.298;2024-03-17T11:41:50;4.53;;;4.13;;
7181;SDS011;3632;42.724;23.298;2024-03-17T11:44:25;5.80;;;4.43;;
7181;SDS011;3632;42.724;23.298;2024-03-17T11:46:53;5.27;;;4.23;;
7181;SDS011;3632;42.724;23.298;2024-03-17T11:49:21;5.63;;;4.40;;
7181;SDS011;3632;42.724;23.298;2024-03-17T11:51:49;5.33;;;4.83;;
7181;SDS011;3632;42.724;23.298;2024-03-17T11:54:17;5.80;;;4.23;;
7181;SDS011;3632;42.724;23.298;2024-03-17T11:56:44;5.57;;;4.70;;
7181;SDS011;3632;42.724;23.298;2024-03-17T11:59:14;6.83;;;4.40;;
7181;SDS011;3632;42.724;23.298;2024-03-17T12:01:43;5.20;;;4.70;;
7181;SDS011;3632;42.724;23.298;2024-03-17T12:04:12;6.53;;;4.83;;
7181;SDS011;3632;42.724;23.298;2024-03-17T12:06:39;5.20;;;4.60;;
7181;SDS011;3632;42.724;23.298;2024-03-17T12:09:18;5.33;;;4.40;;
7181;SDS011;3632;42.724;23.298;2024-03-17T12:11:48;5.57;;;4.13;;
7181;SDS011;3632;42.724;23.298;2024-03-17T12:14:17;4.97;;;4.50;;
7181;SDS011;3632;42.724;23.298;2024-03-17T12:16:48;5.40;;;4.37;;
7181;SDS011;3632;42.724;23.298;2024-03-17T12:19:18;7.40;;;5.03;;
7181;SDS011;3632;42.724;23.298;2024-03-17T12:21:44;6.87;;;5.10;;
7181;SDS011;3632;42.724;23.298;2024-03-17T12:24:14;5.13;;;4.63;;
7181;SDS011;3632;42.724;23.298;2024-03-17T12:26:41;6.50;;;5.73;;
7181;SDS011;3632;42.724;23.298;2024-03-17T12:29:25;6.53;;;5.67;;
7181;SDS011;3632;42.724;23.298;2024-03-17T12:31:53;6.93;;;5.90;;
7181;SDS011;3632;42.724;23.298;2024-03-17T12:34:23;6.37;;;5.23;;
7181;SDS011;3632;42.724;23.298;2024-03-17T12:36:51;6.33;;;5.53;;
7181;SDS011;3632;42.724;23.298;2024-03-17T12:39:19;7.07;;;6.37;;
7181;SDS011;3632;42.724;23.298;2024-03-17T12:42:00;7.77;;;5.70;;
7181;SDS011;3632;42.724;23.298;2024-03-17T12:44:28;6.70;;;5.50;;
7181;SDS011;3632;42.724;23.298;2024-03-17T12:46:55;6.90;;;5.33;;
7181;SDS011;3632;42.724;23.298;2024-03-17T12:49:23;7.20;;;5.20;;
7181;SDS011;3632;42.724;23.298;2024-03-17T12:51:50;6.33;;;5.33;;
7181;SDS011;3632;42.724;23.298;2024-03-17T12:54:19;5.30;;;4.77;;
7181;SDS011;3632;42.724;23.298;2024-03-17T12:56:46;6.10;;;5.50;;
7181;SDS011;3632;42.724;23.298;2024-03-17T12:59:39;7.37;;;6.23;;
7181;SDS011;3632;42.724;23.298;2024-03-17T13:02:24;7.13;;;5.53;;
7181;SDS011;3632;42.724;23.298;2024-03-17T13:05:07;7.70;;;5.70;;
7181;SDS011;3632;42.724;23.298;2024-03-17T13:07:37;6.70;;;6.00;;
7181;SDS011;3632;42.724;23.298;2024-03-17T13:10:04;10.07;;;6.30;;
7181;SDS011;3632;42.724;23.298;2024-03-17T13:12:32;6.70;;;5.63;;
7181;SDS011;3632;42.724;23.298;2024-03-17T13:14:59;7.53;;;6.23;;
7181;SDS011;3632;42.724;23.298;2024-03-17T13:17:26;9.13;;;7.03;;
7181;SDS011;3632;42.724;23.298;2024-03-17T13:19:54;8.97;;;7.10;;
7181;SDS011;3632;42.724;23.298;2024-03-17T13:22:22;7.90;;;5.80;;
7181;SDS011;3632;42.724;23.298;2024-03-17T13:24:49;9.33;;;6.50;;
7181;SDS011;3632;42.724;23.298;2024-03-17T13:27:16;6.93;;;6.17;;
7181;SDS011;3632;42.724;23.298;2024-03-17T13:29:47;7.77;;;6.80;;
7181;SDS011;3632;42.724;23.298;2024-03-17T13:32:14;7.10;;;6.33;;
7181;SDS011;3632;42.724;23.298;2024-03-17T13:34:42;7.53;;;6.40;;
7181;SDS011;3632;42.724;23.298;2024-03-17T13:37:10;12.17;;;9.90;;
7181;SDS011;3632;42.724;23.298;2024-03-17T13:39:39;9.27;;;7.87;;
7181;SDS011;3632;42.724;23.298;2024-03-17T13:42:05;9.80;;;7.77;;
7181;SDS011;3632;42.724;23.298;2024-03-17T13:44:34;8.07;;;7.27;;
7181;SDS011;3632;42.724;23.298;2024-03-17T13:47:01;10.80;;;8.20;;
7181;SDS011;3632;42.724;23.298;2024-03-17T13:49:28;7.83;;;7.03;;
7181;SDS011;3632;42.724;23.298;2024-03-17T13:51:56;7.97;;;7.17;;
7181;SDS011;3632;42.724;23.298;2024-03-17T13:54:23;9.07;;;7.80;;
7181;SDS011;3632;42.724;23.298;2024-03-17T13:56:51;9.00;;;7.37;;
7181;SDS011;3632;42.724;23.298;2024-03-17T13:59:18;8.10;;;7.23;;
7181;SDS011;3632;42.724;23.298;2024-03-17T14:01:44;10.00;;;6.80;;
7181;SDS011;3632;42.724;23.298;2024-03-17T14:04:15;9.03;;;8.13;;
7181;SDS011;3632;42.724;23.298;2024-03-17T14:06:44;7.83;;;6.57;;
7181;SDS011;3632;42.724;23.298;2024-03-17T14:09:11;9.30;;;7.33;;
7181;SDS011;3632;42.724;23.298;2024-03-17T14:11:39;7.80;;;7.00;;
7181;SDS011;3632;42.724;23.298;2024-03-17T14:14:08;9.23;;;6.67;;
7181;SDS011;3632;42.724;23.298;2024-03-17T14:16:35;10.10;;;8.23;;
7181;SDS011;3632;42.724;23.298;2024-03-17T14:19:02;8.37;;;7.30;;
7181;SDS011;3632;42.724;23.298;2024-03-17T14:21:29;10.83;;;7.77;;
7181;SDS011;3632;42.724;23.298;2024-03-17T14:23:56;9.20;;;7.50;;
7181;SDS011;3632;42.724;23.298;2024-03-17T14:26:22;7.83;;;7.03;;
7181;SDS011;3632;42.724;23.298;2024-03-17T14:28:49;10.00;;;7.80;;
7181;SDS011;3632;42.724;23.298;2024-03-17T14:31:18;9.23;;;6.80;;
7181;SDS011;3632;42.724;23.298;2024-03-17T14:33:44;9.50;;;7.47;;
7181;SDS011;3632;42.724;23.298;2024-03-17T14:36:11;10.27;;;8.63;;
7181;SDS011;3632;42.724;23.298;2024-03-17T14:38:38;8.03;;;7.20;;
7181;SDS011;3632;42.724;23.298;2024-03-17T14:41:05;8.37;;;6.60;;
7181;SDS011;3632;42.724;23.298;2024-03-17T14:43:32;8.87;;;6.70;;
7181;SDS011;3632;42.724;23.298;2024-03-17T14:46:03;8.90;;;6.90;;
7181;SDS011;3632;42.724;23.298;2024-03-17T14:48:31;9.93;;;6.63;;
7181;SDS011;3632;42.724;23.298;2024-03-17T14:50:59;12.30;;;7.50;;
7181;SDS011;3632;42.724;23.298;2024-03-17T14:53:26;14.90;;;6.57;;
7181;SDS011;3632;42.724;23.298;2024-03-17T14:55:52;10.37;;;7.77;;
7181;SDS011;3632;42.724;23.298;2024-03-17T14:58:19;11.53;;;8.73;;